KNIP/NIP METAR and TAF weather

Enter ICAO airport designator
Station Type Date Time Source
KNIP METAR 2019/11/21 02:53 UTC NOAA

KNIP 210253Z 03005KT 10SM BKN250 14/09 A3022 RMK AO2 SLP228 T01440094 51013 $


Station Type Date Time Source
KNIP Decoded METAR 2019/11/21 02:53 UTC NOAA

JACKSONVILLE NAVAL AIR STN, FL, United States (KNIP) 30-14N 81-40W 8M
Nov 20, 2019 - 09:53 PM EST / 2019.11.21 0253 UTC
Wind: from the NNE (030 degrees) at 6 MPH (5 KT):0
Visibility: 10 mile(s):0
Sky conditions: mostly cloudy
Temperature: 57.9 F (14.4 C)
Dew Point: 48.9 F (9.4 C)
Relative Humidity: 71%
Pressure (altimeter): 30.22 in. Hg (1023 hPa)
Pressure tendency: 0.04 inches (1.3 hPa) higher than three hours ago
ob: KNIP 210253Z 03005KT 10SM BKN250 14/09 A3022 RMK AO2 SLP228 T01440094 51013
cycle: 3

Station Type Date Time Source
KNIP TAF 2019/11/20 23:58 UTC NOAA

TAF KNIP 2023/2123 03007KT 9999 BKN250 QNH3015INS
FM210500 36010KT 9999 BKN250 QNH3018INS
FM211500 06010KT 9999 BKN250 QNH3015INS T12/2112Z T22/2120Z FN20061

Example: see airport list